Time;durP1;ratioP1;P1;durP2;ratioP2;P2;SDS_P1;SDS_P2;PMS_P1;PMS_P2;Temp;Humidity;BMP_temperature;BMP_pressure;BME280_temperature;BME280_humidity;BME280_pressure;Samples;Min_cycle;Max_cycle;Signal;HPM_P1;HPM_P2
2022/11/05 00:17:08;;;;;;;1.90;1.70;;;24.40;62.90;;;;;;5073536;28;20447;-86
2022/11/05 00:19:36;;;;;;;1.93;1.73;;;24.40;62.80;;;;;;5073681;28;20808;-86
2022/11/05 00:27:33;;;;;;;3.10;1.80;;;24.40;62.80;;;;;;5073206;28;20855;-86
2022/11/05 00:30:00;;;;;;;1.77;1.60;;;24.40;62.80;;;;;;5073063;28;20942;-84
2022/11/05 00:32:27;;;;;;;6.50;1.80;;;24.40;62.70;;;;;;5074435;28;20932;-85
2022/11/05 00:34:55;;;;;;;2.00;1.80;;;24.40;62.70;;;;;;5077444;28;20460;-85
2022/11/05 00:37:21;;;;;;;1.60;1.40;;;24.40;62.80;;;;;;5073798;28;20459;-84
2022/11/05 00:39:48;;;;;;;2.80;2.00;;;24.40;62.70;;;;;;5077213;28;20959;-84
2022/11/05 00:45:00;;;;;;;2.27;2.00;;;24.40;62.60;;;;;;5077037;28;20947;-86
2022/11/05 00:50:13;;;;;;;1.70;1.60;;;24.40;62.70;;;;;;5058023;28;20419;-85
2022/11/05 00:52:55;;;;;;;2.10;1.63;;;24.30;62.50;;;;;;5066376;28;20438;-85
2022/11/05 00:55:22;;;;;;;2.33;1.83;;;24.40;63.50;;;;;;5076809;28;20929;-84
2022/11/05 00:57:49;;;;;;;1.80;1.50;;;24.30;62.50;;;;;;5077006;28;20484;-85
2022/11/05 01:00:17;;;;;;;2.30;2.10;;;24.30;62.50;;;;;;5076712;28;20438;-87
2022/11/05 01:02:43;;;;;;;1.70;1.33;;;24.40;62.60;;;;;;5076389;28;20487;-85
2022/11/05 01:05:10;;;;;;;1.90;1.80;;;24.40;62.50;;;;;;5076677;28;20520;-86
2022/11/05 01:07:38;;;;;;;2.57;1.70;;;24.30;62.30;;;;;;5076532;28;20462;-86
2022/11/05 01:10:06;;;;;;;1.70;1.60;;;24.30;62.30;;;;;;5076557;28;20525;-86
2022/11/05 01:12:33;;;;;;;1.70;1.60;;;24.30;62.50;;;;;;5076584;28;20449;-86
2022/11/05 01:15:00;;;;;;;1.73;1.63;;;24.30;62.50;;;;;;5076585;28;20445;-86
2022/11/05 01:17:27;;;;;;;1.73;1.63;;;24.30;62.40;;;;;;5076431;28;20798;-86
2022/11/05 01:19:53;;;;;;;1.67;1.57;;;24.40;62.50;;;;;;5076422;28;20513;-84
2022/11/05 01:22:20;;;;;;;1.43;1.33;;;24.30;62.30;;;;;;5076473;28;20503;-85
2022/11/05 01:24:48;;;;;;;2.33;1.80;;;24.30;62.30;;;;;;5076721;28;20443;-86
2022/11/05 01:27:15;;;;;;;2.00;1.77;;;24.30;62.30;;;;;;5076155;28;20486;-86
2022/11/05 01:29:42;;;;;;;1.80;1.70;;;24.30;62.40;;;;;;5076653;28;20445;-86
2022/11/05 01:32:08;;;;;;;2.20;1.97;;;24.30;62.40;;;;;;5076503;28;20439;-86
2022/11/05 01:34:35;;;;;;;1.73;1.60;;;24.30;62.30;;;;;;5076426;28;20442;-86
2022/11/05 01:37:02;;;;;;;1.57;1.47;;;24.30;62.30;;;;;;5076138;28;20462;-86
2022/11/05 01:39:29;;;;;;;2.07;1.87;;;24.30;62.30;;;;;;5076052;28;20442;-87
2022/11/05 01:41:58;;;;;;;1.70;1.50;;;24.30;62.30;;;;;;5076266;28;20846;-86
2022/11/05 01:44:51;;;;;;;1.67;1.57;;;24.30;62.30;;;;;;5075499;28;20448;-85
2022/11/05 01:47:27;;;;;;;1.47;1.37;;;24.30;62.30;;;;;;5069851;28;20437;-86
2022/11/05 01:49:55;;;;;;;1.47;1.37;;;24.30;62.30;;;;;;5076237;28;20447;-86
2022/11/05 01:52:23;;;;;;;3.57;1.60;;;24.50;63.40;;;;;;5075840;28;20439;-86
2022/11/05 01:54:50;;;;;;;2.27;2.07;;;24.30;62.30;;;;;;5076212;28;20474;-86
2022/11/05 01:57:19;;;;;;;1.40;1.30;;;24.30;62.30;;;;;;5076096;28;20438;-86
2022/11/05 01:59:49;;;;;;;1.83;1.73;;;24.20;62.20;;;;;;5075672;28;20442;-86
2022/11/05 02:02:17;;;;;;;2.00;1.80;;;24.20;62.30;;;;;;5075836;28;20490;-86
2022/11/05 02:04:46;;;;;;;1.37;1.27;;;24.20;62.20;;;;;;5076308;28;20461;-85
2022/11/05 02:07:13;;;;;;;1.60;1.50;;;24.20;62.20;;;;;;5075585;28;20470;-85
2022/11/05 02:09:47;;;;;;;1.90;1.67;;;24.20;62.20;;;;;;5075873;28;20442;-86
2022/11/05 02:12:15;;;;;;;1.87;1.70;;;24.20;62.10;;;;;;5061652;28;20439;-86
2022/11/05 02:14:43;;;;;;;2.70;1.60;;;24.20;62.20;;;;;;5055685;28;20454;-86
2022/11/05 02:17:19;;;;;;;1.60;1.30;;;24.20;62.20;;;;;;5055786;28;20442;-86
2022/11/05 02:20:15;;;;;;;2.53;1.50;;;24.20;62.20;;;;;;5055552;28;20450;-86
2022/11/05 02:23:34;;;;;;;1.40;1.30;;;24.20;62.00;;;;;;5054232;28;20483;-86
2022/11/05 02:26:24;;;;;;;2.60;1.40;;;24.20;62.00;;;;;;4993779;28;20442;-86
2022/11/05 02:29:28;;;;;;;1.30;1.20;;;24.20;62.20;;;;;;4993947;28;20444;-86
2022/11/05 02:32:05;;;;;;;1.77;1.47;;;24.20;62.20;;;;;;5046534;28;20475;-86
2022/11/05 02:34:40;;;;;;;3.37;1.63;;;24.20;62.20;;;;;;5055230;28;20786;-86
2022/11/05 02:37:14;;;;;;;2.20;2.00;;;24.20;62.20;;;;;;5054994;28;20468;-86
2022/11/05 02:39:46;;;;;;;1.57;1.47;;;24.20;62.10;;;;;;5055249;28;20443;-86
2022/11/05 02:42:26;;;;;;;1.50;1.40;;;24.20;62.10;;;;;;5055212;28;20490;-85
2022/11/05 02:45:01;;;;;;;3.50;1.87;;;24.20;62.10;;;;;;5055021;28;20456;-85
2022/11/05 02:47:38;;;;;;;2.10;1.90;;;24.20;62.10;;;;;;5054924;28;20446;-86
2022/11/05 02:50:16;;;;;;;1.97;1.40;;;24.20;62.00;;;;;;5055086;28;20542;-86
2022/11/05 02:52:51;;;;;;;1.60;1.43;;;24.20;62.10;;;;;;5054801;28;20444;-85
2022/11/05 02:55:25;;;;;;;1.67;1.50;;;24.20;62.10;;;;;;5054337;28;20453;-85
2022/11/05 02:57:52;;;;;;;1.70;1.50;;;24.20;62.00;;;;;;5054792;28;20438;-86
2022/11/05 03:00:40;;;;;;;1.60;1.50;;;24.20;62.10;;;;;;5054713;28;20872;-86
2022/11/05 03:03:15;;;;;;;1.50;1.40;;;24.20;62.10;;;;;;5054635;28;20487;-86
2022/11/05 03:05:54;;;;;;;2.30;1.60;;;24.20;62.10;;;;;;5054748;28;20448;-86
2022/11/05 03:08:29;;;;;;;1.60;1.50;;;24.20;62.10;;;;;;5054700;28;20532;-86
2022/11/05 03:11:01;;;;;;;1.80;1.70;;;24.10;62.00;;;;;;5054396;28;20924;-86
2022/11/05 03:13:38;;;;;;;1.33;1.23;;;24.20;62.10;;;;;;5054725;28;20431;-85
2022/11/05 03:16:16;;;;;;;1.70;1.40;;;24.20;62.00;;;;;;5054671;28;20806;-86
2022/11/05 03:18:51;;;;;;;1.60;1.50;;;24.20;62.00;;;;;;5054325;28;20442;-86
2022/11/05 03:21:21;;;;;;;1.57;1.47;;;24.10;62.70;;;;;;5036619;28;20911;-86
2022/11/05 03:23:56;;;;;;;1.73;1.63;;;24.10;61.90;;;;;;5059727;28;20452;-86
2022/11/05 03:26:28;;;;;;;1.23;1.13;;;24.10;61.90;;;;;;5073980;28;20469;-86
2022/11/05 03:29:00;;;;;;;1.40;1.30;;;24.10;61.90;;;;;;5074284;28;20431;-86
2022/11/05 03:31:29;;;;;;;1.87;1.30;;;24.10;61.90;;;;;;5057102;28;20446;-86
2022/11/05 03:33:59;;;;;;;1.50;1.40;;;24.10;61.90;;;;;;5073929;28;20442;-86
2022/11/05 03:36:30;;;;;;;1.47;1.37;;;24.10;61.90;;;;;;5073944;28;20462;-86
2022/11/05 03:39:02;;;;;;;1.60;1.47;;;24.10;61.80;;;;;;5074040;28;20449;-86
2022/11/05 03:41:30;;;;;;;2.80;1.40;;;24.10;61.90;;;;;;5073692;28;20528;-86
2022/11/05 03:44:00;;;;;;;1.37;1.13;;;24.10;61.90;;;;;;5074108;28;20441;-86
2022/11/05 03:46:31;;;;;;;1.73;1.20;;;24.10;61.90;;;;;;5073926;28;20455;-86
2022/11/05 03:49:02;;;;;;;1.40;1.30;;;24.10;61.80;;;;;;5073813;28;20893;-86
2022/11/05 03:51:36;;;;;;;1.30;1.20;;;24.10;61.90;;;;;;5073839;28;20449;-86
2022/11/05 03:54:04;;;;;;;2.17;1.40;;;24.10;61.90;;;;;;5073769;28;20445;-86
2022/11/05 03:56:37;;;;;;;1.40;1.23;;;24.10;61.90;;;;;;5073836;28;20452;-86
2022/11/05 03:59:07;;;;;;;1.93;1.70;;;24.10;61.90;;;;;;5073735;28;20444;-86
2022/11/05 04:01:36;;;;;;;1.30;1.20;;;24.10;61.90;;;;;;5073343;28;20492;-86
2022/11/05 04:04:05;;;;;;;1.67;1.57;;;24.10;61.80;;;;;;5056187;28;20445;-86
2022/11/05 04:14:44;;;;;;;1.60;1.50;;;24.00;61.80;;;;;;5073504;28;20467;-86
2022/11/05 04:17:10;;;;;;;1.50;1.37;;;24.00;61.80;;;;;;5073462;28;20437;-86
2022/11/05 04:25:13;;;;;;;1.40;1.20;;;24.00;61.80;;;;;;5073774;28;20416;-87
2022/11/05 04:27:40;;;;;;;1.57;1.47;;;24.10;61.90;;;;;;5073172;28;20465;-86
2022/11/05 04:30:19;;;;;;;1.50;1.20;;;24.00;61.70;;;;;;5073521;28;20528;-86
2022/11/05 04:33:03;;;;;;;1.50;1.40;;;24.10;61.80;;;;;;5073251;28;20935;-86
2022/11/05 04:35:34;;;;;;;1.60;1.50;;;24.10;61.80;;;;;;5073243;28;20443;-86
2022/11/05 04:38:01;;;;;;;1.97;1.70;;;24.00;61.70;;;;;;5073142;28;20441;-84
2022/11/05 04:40:30;;;;;;;1.37;1.27;;;24.00;61.70;;;;;;5073267;28;20438;-86
2022/11/05 04:42:57;;;;;;;3.07;1.20;;;24.00;61.70;;;;;;5073085;28;20487;-85
2022/11/05 04:45:25;;;;;;;1.80;1.53;;;24.00;61.70;;;;;;5073488;28;20445;-86
2022/11/05 04:47:52;;;;;;;1.30;1.20;;;24.20;61.90;;;;;;5072974;28;20955;-85
2022/11/05 04:50:19;;;;;;;1.60;1.50;;;24.10;61.70;;;;;;5073123;28;20452;-86
2022/11/05 04:52:47;;;;;;;1.73;1.63;;;24.00;61.60;;;;;;5073277;28;20443;-85
2022/11/05 04:55:14;;;;;;;1.50;1.40;;;24.00;61.60;;;;;;5073026;28;20803;-86
2022/11/05 04:57:40;;;;;;;1.40;1.20;;;24.00;61.60;;;;;;5073188;28;20447;-86
2022/11/05 05:00:09;;;;;;;1.57;1.47;;;24.00;61.60;;;;;;5072897;28;20450;-86
2022/11/05 05:02:37;;;;;;;1.40;1.23;;;24.00;61.70;;;;;;5072861;28;20472;-86
2022/11/05 05:05:04;;;;;;;1.40;1.23;;;24.00;61.60;;;;;;5073127;28;20441;-85
2022/11/05 05:07:32;;;;;;;1.43;1.33;;;24.00;61.70;;;;;;5073183;28;20465;-85
2022/11/05 05:10:00;;;;;;;1.77;1.10;;;24.00;61.60;;;;;;5073068;28;20433;-86
2022/11/05 05:12:27;;;;;;;2.13;1.40;;;24.00;62.40;;;;;;5073070;28;20438;-86
2022/11/05 05:14:54;;;;;;;1.73;1.63;;;24.10;61.70;;;;;;5072655;28;20445;-86
2022/11/05 05:17:21;;;;;;;2.60;1.43;;;24.00;61.60;;;;;;5072992;28;20437;-85
2022/11/05 05:22:33;;;;;;;1.20;1.10;;;24.20;61.80;;;;;;5076824;28;20476;-86
2022/11/05 05:25:01;;;;;;;1.60;1.50;;;24.00;61.70;;;;;;5076283;28;20443;-86
2022/11/05 05:27:29;;;;;;;1.40;1.30;;;24.00;61.60;;;;;;5076466;28;20488;-86
2022/11/05 05:29:56;;;;;;;1.30;1.20;;;24.00;61.60;;;;;;5076576;28;20776;-86
2022/11/05 05:32:23;;;;;;;1.33;1.23;;;24.00;61.60;;;;;;5076457;28;20499;-86
2022/11/05 05:34:50;;;;;;;1.50;1.40;;;24.00;61.60;;;;;;5076526;28;20445;-86
2022/11/05 05:37:17;;;;;;;1.40;1.30;;;24.00;61.50;;;;;;5076144;28;20461;-86
2022/11/05 05:39:44;;;;;;;1.43;1.33;;;24.00;61.50;;;;;;5076374;28;20464;-86
2022/11/05 05:42:13;;;;;;;1.73;1.50;;;24.00;61.50;;;;;;5075992;28;20508;-86
2022/11/05 05:44:40;;;;;;;1.43;1.33;;;24.00;61.50;;;;;;5076055;28;20447;-86
2022/11/05 05:47:07;;;;;;;1.40;1.30;;;24.00;61.50;;;;;;5076217;28;20436;-86
2022/11/05 05:49:33;;;;;;;1.37;1.27;;;24.00;61.50;;;;;;5076191;28;20430;-86
2022/11/05 05:52:00;;;;;;;1.50;1.40;;;24.00;61.50;;;;;;5076121;28;20442;-86
2022/11/05 05:54:27;;;;;;;1.33;1.23;;;23.90;61.40;;;;;;5075832;28;20448;-85
2022/11/05 05:56:54;;;;;;;1.30;1.20;;;23.90;61.40;;;;;;5075815;28;20448;-87
2022/11/05 05:59:22;;;;;;;1.50;1.40;;;23.90;61.40;;;;;;5076193;28;20437;-86
2022/11/05 06:01:49;;;;;;;1.20;1.10;;;23.90;61.40;;;;;;5075836;28;20442;-86
2022/11/05 06:04:15;;;;;;;1.70;1.60;;;23.90;61.40;;;;;;5075680;28;20442;-86
2022/11/05 06:06:45;;;;;;;1.30;1.20;;;23.90;61.40;;;;;;5075723;28;20824;-86
2022/11/05 06:09:13;;;;;;;1.50;1.40;;;23.90;61.40;;;;;;5075807;28;20440;-86
2022/11/05 06:11:39;;;;;;;1.40;1.30;;;23.90;61.40;;;;;;5075447;28;20433;-87
2022/11/05 06:14:09;;;;;;;1.30;1.20;;;23.90;61.40;;;;;;5075780;28;20499;-86
2022/11/05 06:16:37;;;;;;;1.23;1.13;;;23.90;61.40;;;;;;5075569;28;20440;-86
2022/11/05 06:19:05;;;;;;;1.53;1.43;;;23.90;61.40;;;;;;5075720;28;20515;-86
2022/11/05 06:21:32;;;;;;;1.70;1.60;;;23.90;61.40;;;;;;5075406;28;20444;-86
2022/11/05 06:24:01;;;;;;;1.40;1.30;;;23.90;61.40;;;;;;5075616;28;20480;-86
2022/11/05 06:26:28;;;;;;;1.40;1.30;;;23.90;61.40;;;;;;5075312;28;20469;-86
2022/11/05 06:28:55;;;;;;;1.20;1.10;;;23.90;61.40;;;;;;5075858;28;20490;-86
2022/11/05 06:31:22;;;;;;;1.40;1.30;;;23.90;61.40;;;;;;5074923;28;20445;-84
2022/11/05 06:33:50;;;;;;;1.83;1.73;;;23.90;61.40;;;;;;5075046;28;20544;-86
2022/11/05 06:36:19;;;;;;;2.03;1.60;;;23.90;61.40;;;;;;5075375;28;20464;-86
2022/11/05 06:38:45;;;;;;;1.10;1.00;;;23.90;61.40;;;;;;5074970;28;20467;-86
2022/11/05 06:41:12;;;;;;;1.30;1.20;;;23.90;61.40;;;;;;5075225;28;20446;-86
2022/11/05 06:43:39;;;;;;;1.60;1.50;;;23.90;61.40;;;;;;5074938;28;20485;-86
2022/11/05 06:46:06;;;;;;;1.13;1.00;;;23.90;61.40;;;;;;5075231;28;20951;-86
2022/11/05 06:48:34;;;;;;;1.20;1.00;;;23.90;61.40;;;;;;5074893;28;20448;-85
2022/11/05 06:51:02;;;;;;;1.37;1.03;;;23.90;61.40;;;;;;5074708;28;20449;-86
2022/11/05 06:53:29;;;;;;;1.20;1.10;;;23.90;61.40;;;;;;5074874;28;20803;-87
2022/11/05 06:55:56;;;;;;;1.40;1.10;;;23.90;61.40;;;;;;5074910;28;20448;-86
2022/11/05 06:58:23;;;;;;;1.57;1.47;;;23.80;61.30;;;;;;5074749;28;20442;-86
2022/11/05 07:00:50;;;;;;;1.60;1.43;;;24.00;61.50;;;;;;5074747;28;20443;-86
2022/11/05 07:03:16;;;;;;;1.43;1.30;;;23.90;61.40;;;;;;5074561;28;20493;-86
2022/11/05 07:05:45;;;;;;;3.30;1.23;;;23.80;61.30;;;;;;5074300;28;20476;-86
2022/11/05 07:08:14;;;;;;;1.40;1.30;;;23.90;61.40;;;;;;5074702;28;20438;-86
2022/11/05 07:10:40;;;;;;;1.30;1.20;;;23.90;62.20;;;;;;5074408;28;20449;-86
2022/11/05 07:13:07;;;;;;;1.43;1.33;;;23.80;61.30;;;;;;5074594;28;20440;-86
2022/11/05 07:15:34;;;;;;;1.23;1.13;;;23.80;61.30;;;;;;5074598;28;20442;-86
2022/11/05 07:18:01;;;;;;;1.30;1.10;;;23.80;61.30;;;;;;5074586;28;20440;-86
2022/11/05 07:20:28;;;;;;;1.20;1.00;;;23.80;61.30;;;;;;5074557;28;20477;-86
2022/11/05 07:23:02;;;;;;;1.30;1.10;;;23.80;61.40;;;;;;5074122;28;21418;-86
2022/11/05 07:25:31;;;;;;;1.43;1.33;;;23.80;61.30;;;;;;5074151;28;20493;-85
2022/11/05 07:27:58;;;;;;;1.40;1.20;;;23.80;61.40;;;;;;5053927;28;20478;-85
2022/11/05 07:30:25;;;;;;;1.30;1.20;;;23.80;61.40;;;;;;5054219;28;20443;-87
2022/11/05 07:32:52;;;;;;;1.27;1.17;;;23.80;61.30;;;;;;5054276;28;20790;-87
2022/11/05 07:35:18;;;;;;;1.30;1.20;;;23.80;61.30;;;;;;5054002;28;20439;-86
2022/11/05 07:37:46;;;;;;;1.43;1.33;;;23.80;61.30;;;;;;5054071;28;20457;-86
2022/11/05 07:40:15;;;;;;;1.40;1.30;;;23.80;61.30;;;;;;5053953;28;20453;-87
2022/11/05 07:42:43;;;;;;;1.47;1.37;;;23.80;61.30;;;;;;5053485;28;20486;-85
2022/11/05 07:45:11;;;;;;;1.30;1.20;;;23.80;61.30;;;;;;5053762;28;20446;-86
2022/11/05 07:47:38;;;;;;;1.90;1.10;;;23.80;61.30;;;;;;5071012;28;20441;-86
2022/11/05 07:50:06;;;;;;;1.20;1.10;;;23.80;61.40;;;;;;5073776;28;20573;-86
2022/11/05 07:52:33;;;;;;;1.23;1.13;;;23.80;61.40;;;;;;5073839;28;20862;-86
2022/11/05 07:55:00;;;;;;;1.30;1.20;;;23.80;61.40;;;;;;5073849;28;20441;-86
2022/11/05 07:57:27;;;;;;;1.40;1.30;;;23.80;61.40;;;;;;5073791;28;20448;-84
2022/11/05 07:59:55;;;;;;;1.67;1.57;;;23.80;61.40;;;;;;5073536;28;20835;-84
2022/11/05 08:02:22;;;;;;;3.17;1.80;;;23.80;61.30;;;;;;5073674;28;20451;-84
2022/11/05 08:04:48;;;;;;;1.50;1.40;;;23.80;60.00;;;;;;5073790;28;20442;-84
2022/11/05 08:07:15;;;;;;;1.87;1.77;;;24.00;60.50;;;;;;5073439;28;20473;-85
2022/11/05 08:09:42;;;;;;;2.07;1.97;;;23.80;59.80;;;;;;5073526;28;20433;-84
2022/11/05 08:12:09;;;;;;;1.50;1.40;;;23.80;59.90;;;;;;5073706;28;20796;-86
2022/11/05 08:14:35;;;;;;;1.40;1.30;;;23.90;60.10;;;;;;5073707;28;20445;-91
2022/11/05 08:17:04;;;;;;;2.93;1.70;;;23.90;60.10;;;;;;5095492;22;20498;-92
2022/11/05 08:19:32;;;;;;;2.80;1.50;;;24.00;60.20;;;;;;5103263;28;20464;-83
2022/11/05 08:22:02;;;;;;;4.63;1.63;;;24.00;60.50;;;;;;5103451;23;20491;-83
2022/11/05 08:24:29;;;;;;;4.83;1.60;;;24.10;60.60;;;;;;5082776;28;20477;-85
2022/11/05 08:26:55;;;;;;;4.40;1.97;;;24.10;60.50;;;;;;5073467;28;20431;-90
2022/11/05 08:29:22;;;;;;;5.43;1.60;;;24.20;59.70;;;;;;5073348;28;20812;-87
2022/11/05 08:31:49;;;;;;;1.90;1.80;;;24.20;59.50;;;;;;5073372;28;20978;-91
2022/11/05 08:34:17;;;;;;;2.33;1.80;;;24.30;59.40;;;;;;5073807;28;20803;-90
2022/11/05 08:36:45;;;;;;;3.13;1.57;;;24.30;59.20;;;;;;5073634;28;20466;-89
2022/11/05 08:39:12;;;;;;;3.20;1.70;;;24.40;59.10;;;;;;5073472;28;20443;-91
2022/11/05 08:41:40;;;;;;;1.83;1.73;;;24.40;59.10;;;;;;5073537;28;20864;-90
2022/11/05 08:44:08;;;;;;;2.20;2.00;;;24.50;58.90;;;;;;5073244;28;20490;-90
2022/11/05 08:46:35;;;;;;;3.20;2.07;;;24.60;58.80;;;;;;5073420;28;20818;-90
2022/11/05 08:49:02;;;;;;;3.70;1.60;;;24.70;58.70;;;;;;5073604;28;20434;-93
2022/11/05 08:51:30;;;;;;;1.67;1.57;;;24.80;58.60;;;;;;5073554;28;20467;-90
2022/11/05 08:53:57;;;;;;;2.77;1.70;;;25.00;58.30;;;;;;5075591;28;20806;-90
2022/11/05 08:56:23;;;;;;;2.40;2.17;;;25.20;58.20;;;;;;5077156;28;20443;-88
2022/11/05 08:58:50;;;;;;;3.97;1.77;;;25.30;58.00;;;;;;5077255;28;20442;-90
2022/11/05 09:01:17;;;;;;;4.43;2.10;;;25.30;57.80;;;;;;5077286;28;20454;-90
2022/11/05 09:03:44;;;;;;;2.77;1.67;;;25.30;57.80;;;;;;5097976;28;20534;-85
2022/11/05 09:08:47;;;;;;;3.27;1.73;;;25.60;58.30;;;;;;5214979;22;20470;-84
2022/11/05 09:11:14;;;;;;;2.20;1.80;;;25.80;58.20;;;;;;5114513;28;20802;-84
2022/11/05 09:13:41;;;;;;;2.37;1.73;;;26.20;57.90;;;;;;5115455;23;20482;-85
2022/11/05 09:16:17;;;;;;;4.27;2.20;;;26.50;57.60;;;;;;5084801;28;20459;-89
2022/11/05 09:18:44;;;;;;;3.97;2.77;;;26.90;56.90;;;;;;5085109;28;20448;-84
2022/11/05 09:21:11;;;;;;;3.10;1.90;;;27.20;57.60;;;;;;5098575;28;20445;-84
2022/11/05 09:58:49;;;;;;;7.80;7.10;;;30.30;54.10;;;;;;5117537;22;20991;-85
2022/11/05 10:01:22;;;;;;;13.73;12.37;;;30.40;53.90;;;;;;5115798;22;20465;-89
2022/11/05 10:06:26;;;;;;;24.73;22.33;;;30.60;53.90;;;;;;5072182;28;20513;-88
2022/11/05 10:11:41;;;;;;;36.50;33.10;;;30.50;54.20;;;;;;5032634;26;20481;-96
2022/11/05 10:14:15;;;;;;;38.03;34.73;;;30.50;54.50;;;;;;5055858;28;20557;-86
2022/11/05 10:16:47;;;;;;;39.23;35.93;;;30.40;55.00;;;;;;5055142;28;20446;-85
2022/11/05 10:21:50;;;;;;;41.63;38.00;;;29.50;56.00;;;;;;4048787;22;20462;-84
2022/11/05 10:24:20;;;;;;;40.93;37.50;;;29.20;56.60;;;;;;5114169;27;20458;-84
2022/11/05 10:26:49;;;;;;;41.20;37.40;;;28.90;57.10;;;;;;5109762;28;20443;-86
2022/11/05 10:29:24;;;;;;;22.87;20.87;;;28.70;57.60;;;;;;5100829;27;20445;-85
2022/11/05 10:31:53;;;;;;;19.47;17.50;;;28.30;56.70;;;;;;5095432;28;20457;-85
2022/11/05 10:34:22;;;;;;;24.43;22.13;;;28.10;55.90;;;;;;5078958;28;20847;-85
2022/11/05 10:36:48;;;;;;;24.63;22.40;;;27.80;56.60;;;;;;5079378;28;20447;-86
2022/11/05 10:39:17;;;;;;;25.77;23.47;;;27.80;57.80;;;;;;5082453;28;20454;-90
2022/11/05 10:41:58;;;;;;;25.80;23.50;;;27.70;58.20;;;;;;5085643;28;20439;-93
2022/11/05 10:44:32;;;;;;;24.73;22.40;;;27.60;58.50;;;;;;5084147;28;20524;-95
2022/11/05 10:47:12;;;;;;;17.57;15.77;;;27.50;59.00;;;;;;5081664;28;20425;-96
2022/11/05 10:49:48;;;;;;;23.93;14.30;;;27.40;57.80;;;;;;5081018;28;20435;-90
2022/11/05 10:52:22;;;;;;;22.03;19.90;;;27.30;58.40;;;;;;5083337;28;20447;-87
2022/11/05 10:54:52;;;;;;;21.33;19.13;;;27.20;59.30;;;;;;5082638;28;20481;-92
2022/11/05 10:57:32;;;;;;;20.83;18.77;;;27.20;59.40;;;;;;5082464;28;20449;-95
2022/11/05 11:00:28;;;;;;;17.67;16.00;;;27.20;59.50;;;;;;5083300;28;20454;-85
2022/11/05 11:02:58;;;;;;;15.70;14.30;;;27.10;59.60;;;;;;5013441;28;21003;-90
2022/11/05 11:05:29;;;;;;;18.30;16.50;;;26.90;59.60;;;;;;5055690;28;20447;-89
2022/11/05 11:08:03;;;;;;;16.73;15.07;;;26.80;59.60;;;;;;5055834;28;20436;-96
2022/11/05 11:10:34;;;;;;;16.50;14.90;;;26.80;59.90;;;;;;5056783;28;20435;-96
2022/11/05 11:13:01;;;;;;;16.30;14.80;;;26.80;59.90;;;;;;5059201;28;20928;-95
2022/11/05 11:15:32;;;;;;;15.03;13.60;;;26.80;59.90;;;;;;5058153;28;20485;-94
2022/11/05 11:18:14;;;;;;;16.70;14.60;;;26.80;59.90;;;;;;5058654;28;20444;-86
2022/11/05 11:21:04;;;;;;;12.13;11.13;;;26.70;60.00;;;;;;5075091;28;20470;-85
2022/11/05 11:23:53;;;;;;;12.70;11.47;;;26.60;58.10;;;;;;5087682;28;20467;-87
2022/11/05 11:26:21;;;;;;;14.43;13.07;;;26.70;59.80;;;;;;5114748;27;20403;-87
2022/11/05 11:29:34;;;;;;;12.03;10.87;;;26.60;59.80;;;;;;5114226;28;20461;-95
2022/11/05 11:32:13;;;;;;;8.40;6.13;;;26.60;58.30;;;;;;5115914;28;20459;-94
2022/11/05 11:34:41;;;;;;;11.97;10.10;;;26.30;56.20;;;;;;5116843;28;20479;-86
2022/11/05 11:37:11;;;;;;;11.70;9.80;;;26.30;59.30;;;;;;5115011;28;20448;-89
2022/11/05 11:39:38;;;;;;;10.80;8.83;;;26.40;59.40;;;;;;5135579;22;20549;-91
2022/11/05 11:44:50;;;;;;;10.57;8.87;;;26.30;59.40;;;;;;5103560;22;20547;-96
2022/11/05 11:47:21;;;;;;;9.03;8.33;;;26.40;59.50;;;;;;5107791;28;20508;-88
2022/11/05 11:52:17;;;;;;;7.43;6.80;;;26.30;59.60;;;;;;5105949;22;20479;-87
2022/11/05 11:54:44;;;;;;;6.70;5.93;;;26.20;58.80;;;;;;5093823;28;20695;-87
2022/11/05 11:57:22;;;;;;;6.80;5.13;;;26.10;58.10;;;;;;5093749;28;20446;-86
2022/11/05 11:59:49;;;;;;;5.60;5.10;;;26.00;57.80;;;;;;5091338;28;20941;-86
2022/11/05 12:02:49;;;;;;;5.67;5.20;;;26.00;57.90;;;;;;5084642;28;20467;-86
2022/11/05 12:05:31;;;;;;;4.67;4.27;;;26.00;57.80;;;;;;5073673;28;20449;-86
2022/11/05 12:08:08;;;;;;;4.50;4.00;;;25.90;58.00;;;;;;5090829;28;20444;-84
2022/11/05 12:10:46;;;;;;;6.20;4.70;;;25.90;57.90;;;;;;5087002;28;20937;-85
2022/11/05 12:13:43;;;;;;;8.50;4.90;;;25.80;58.00;;;;;;5073252;28;20442;-85
2022/11/05 12:16:20;;;;;;;5.17;4.50;;;25.80;58.10;;;;;;5058365;28;20441;-85
2022/11/05 12:18:54;;;;;;;6.10;5.00;;;25.80;58.70;;;;;;5080536;28;20790;-92
2022/11/05 12:21:31;;;;;;;5.20;4.80;;;25.90;59.40;;;;;;5094533;28;20440;-91
2022/11/05 12:24:18;;;;;;;7.63;4.50;;;25.90;59.50;;;;;;5094391;28;20434;-92
2022/11/05 12:26:54;;;;;;;5.23;4.77;;;25.90;59.50;;;;;;5081414;28;20839;-92
2022/11/05 12:29:35;;;;;;;6.03;5.10;;;26.00;59.60;;;;;;5094445;28;20435;-91
2022/11/05 12:32:24;;;;;;;4.83;4.47;;;26.00;59.50;;;;;;5093965;28;20501;-92
2022/11/05 12:34:59;;;;;;;8.17;5.10;;;26.00;59.60;;;;;;5091496;28;20849;-93
2022/11/05 12:37:33;;;;;;;8.53;4.83;;;26.00;59.60;;;;;;5094037;28;20442;-93
2022/11/05 12:40:24;;;;;;;5.50;5.00;;;26.00;60.40;;;;;;5094193;28;20531;-93
2022/11/05 12:43:03;;;;;;;5.60;5.10;;;25.90;59.70;;;;;;5094123;28;20488;-92
2022/11/05 12:45:43;;;;;;;4.90;4.50;;;26.00;59.80;;;;;;5094086;28;20438;-94
2022/11/05 12:48:26;;;;;;;4.87;4.47;;;25.90;59.70;;;;;;5094156;28;20427;-92
2022/11/05 12:51:01;;;;;;;4.43;4.03;;;26.00;59.90;;;;;;5094243;28;20985;-92
2022/11/05 12:53:50;;;;;;;5.03;4.63;;;25.90;59.90;;;;;;5093761;28;20902;-93
2022/11/05 12:56:24;;;;;;;3.90;3.60;;;25.90;59.90;;;;;;5094043;28;20424;-92
2022/11/05 12:59:00;;;;;;;4.27;3.97;;;25.90;60.10;;;;;;5094229;28;20443;-95
2022/11/05 13:01:32;;;;;;;4.33;3.93;;;25.90;60.10;;;;;;5093749;28;20467;-92
2022/11/05 13:04:05;;;;;;;4.07;3.77;;;25.90;60.10;;;;;;5093964;28;20442;-95
2022/11/05 13:06:39;;;;;;;4.53;4.13;;;25.90;60.10;;;;;;5093725;28;20436;-95
2022/11/05 13:09:11;;;;;;;3.90;3.60;;;26.00;60.10;;;;;;5093751;28;20518;-92
2022/11/05 13:11:43;;;;;;;3.80;3.50;;;25.90;60.10;;;;;;5093480;28;20945;-94
2022/11/05 13:14:13;;;;;;;4.07;3.37;;;25.80;60.20;;;;;;5093585;28;20478;-94
2022/11/05 13:16:45;;;;;;;3.67;3.30;;;25.80;60.20;;;;;;5093764;28;20455;-95
2022/11/05 13:19:18;;;;;;;3.83;3.53;;;25.80;60.30;;;;;;5093847;28;20428;-96
2022/11/05 13:21:51;;;;;;;3.47;3.17;;;25.80;60.30;;;;;;5093922;28;20431;-95
2022/11/05 13:24:24;;;;;;;3.67;3.43;;;25.70;60.30;;;;;;5093800;28;20431;-95
2022/11/05 13:26:55;;;;;;;3.33;2.90;;;25.80;60.40;;;;;;5093753;28;20435;-94
2022/11/05 13:29:27;;;;;;;4.60;4.07;;;25.70;60.20;;;;;;5093792;28;20442;-95
2022/11/05 13:31:58;;;;;;;3.47;3.27;;;25.70;60.30;;;;;;5093545;28;20466;-94
2022/11/05 13:34:25;;;;;;;3.40;3.10;;;25.70;60.30;;;;;;5093773;28;20470;-94
2022/11/05 13:39:47;;;;;;;5.50;3.73;;;25.70;60.50;;;;;;5093330;28;20788;-94
2022/11/05 13:43:02;;;;;;;3.17;2.97;;;25.60;60.30;;;;;;5097654;28;20442;-94
2022/11/05 13:45:47;;;;;;;3.00;2.80;;;25.60;60.00;;;;;;5054502;28;20452;-94
2022/11/05 13:48:44;;;;;;;3.63;3.33;;;25.50;59.90;;;;;;5092679;28;20533;-94
2022/11/05 13:51:32;;;;;;;3.73;3.07;;;25.50;60.00;;;;;;5096882;28;20531;-95
2022/11/05 13:54:32;;;;;;;3.93;3.53;;;25.50;60.10;;;;;;5096849;28;20440;-95
2022/11/05 13:57:16;;;;;;;3.00;2.80;;;25.50;60.20;;;;;;5047769;28;20529;-95
2022/11/05 14:00:00;;;;;;;2.57;2.37;;;25.50;59.90;;;;;;5096612;28;20423;-94
2022/11/05 14:02:35;;;;;;;3.03;2.70;;;25.50;59.70;;;;;;5096866;28;20507;-94
2022/11/05 14:05:02;;;;;;;2.93;2.63;;;25.50;59.60;;;;;;5096762;28;20430;-94
2022/11/05 14:07:31;;;;;;;2.80;2.60;;;25.50;59.50;;;;;;5096720;28;20454;-94
2022/11/05 14:10:01;;;;;;;2.70;2.50;;;25.40;59.40;;;;;;5096610;28;21009;-94
2022/11/05 14:12:34;;;;;;;2.70;2.50;;;25.50;59.60;;;;;;5096645;28;20436;-94
2022/11/05 14:15:07;;;;;;;2.70;2.50;;;25.40;59.40;;;;;;5096548;28;20478;-93
2022/11/05 14:17:53;;;;;;;1.93;1.70;;;25.40;59.40;;;;;;5096453;28;20478;-94
2022/11/05 14:20:39;;;;;;;2.80;2.60;;;25.40;59.30;;;;;;5096464;28;20434;-94
2022/11/05 14:23:42;;;;;;;2.83;2.63;;;25.40;59.40;;;;;;5096488;28;20435;-93
2022/11/05 14:26:19;;;;;;;2.90;2.70;;;25.40;59.40;;;;;;5095235;28;20442;-94
2022/11/05 14:28:49;;;;;;;1.90;1.80;;;25.40;59.50;;;;;;5095870;28;20449;-94
2022/11/05 14:31:40;;;;;;;4.23;2.77;;;25.30;59.40;;;;;;5096269;28;20437;-94
2022/11/05 14:34:41;;;;;;;2.53;2.33;;;25.40;59.50;;;;;;5096146;28;20807;-94
2022/11/05 14:37:30;;;;;;;2.33;2.13;;;25.40;59.70;;;;;;5096249;28;20785;-94
2022/11/05 14:40:00;;;;;;;3.00;2.77;;;25.40;59.80;;;;;;5091607;28;20533;-94
2022/11/05 14:42:29;;;;;;;2.60;2.40;;;25.30;59.80;;;;;;5096156;28;20878;-93
2022/11/05 14:45:02;;;;;;;2.63;2.43;;;25.30;60.00;;;;;;5095613;28;20519;-94
2022/11/05 14:47:31;;;;;;;2.90;2.70;;;25.30;60.20;;;;;;5095709;28;20435;-92